Sy Sara — DC9402 — position and weather

sailwx.info

Track history (hours):
 
Tides and Currents Weather Stations Pressure Air Temp Water Temp Dewpoint Dewpoint Depression Visibility Wind Speed Wind Dir Waves Ship Positions

Sy Sara

Last reported at 2018-Apr-19 10:51 UTC. Time now 2018-Apr-20 02:55 UTC.
Position N 39°28' W 009°31'.

Length 12 m.

Type: Sailing vessel. MMSI: 211763730.

Date/timePositionNaut miles runAvg speedWind from/ knotsBaromVisibWave heightAir tempDewpointWater temp
2018-Apr-19 10:51N 39°28' W 009°31'9 0.3
2018-Apr-18 07:27N 39°20' W 009°25'4 3.1
2018-Apr-18 06:16N 39°22' W 009°30'1 2.9
2018-Apr-18 05:55N 39°22' W 009°31'1 2.2
2018-Apr-18 05:30N 39°22' W 009°32'3 4.9
2018-Apr-18 04:56N 39°19' W 009°32'2 4.9
2018-Apr-18 04:30N 39°17' W 009°32'3 5.2
2018-Apr-18 04:00N 39°14' W 009°32'3 5.3
2018-Apr-18 03:30N 39°12' W 009°32'3 5.5
2018-Apr-18 03:00N 39°09' W 009°32'3 5.3
2018-Apr-18 02:30N 39°06' W 009°32'3 5.2
2018-Apr-18 02:00N 39°04' W 009°32'3 5.2
2018-Apr-18 01:30N 39°01' W 009°32'2 5.0
2018-Apr-18 01:00N 38°59' W 009°32'2 5.0
2018-Apr-18 00:30N 38°56' W 009°33'2 4.9
2018-Apr-18 00:00N 38°54' W 009°33'2 4.9
2018-Apr-17 23:30N 38°51' W 009°33'2 4.8
2018-Apr-17 23:00N 38°49' W 009°33'3 4.9
2018-Apr-17 22:29N 38°46' W 009°33'2 4.5
2018-Apr-17 22:00N 38°44' W 009°33'2 4.3
2018-Apr-17 21:30N 38°42' W 009°32'2 4.3
2018-Apr-17 21:00N 38°40' W 009°30'2 4.3
2018-Apr-17 20:30N 38°39' W 009°28'2 3.7
2018-Apr-17 20:00N 38°38' W 009°26'2 3.7
2018-Apr-17 19:30N 38°37' W 009°24'2 3.2
2018-Apr-17 19:00N 38°37' W 009°22'1 1.8
2018-Apr-17 18:30N 38°36' W 009°21'2 4.2
2018-Apr-17 17:59N 38°34' W 009°20'3 4.5
2018-Apr-17 17:25N 38°32' W 009°19'2 4.5
2018-Apr-17 17:00N 38°30' W 009°18'2 4.5
2018-Apr-17 16:30N 38°28' W 009°17'2 4.7
2018-Apr-17 16:00N 38°26' W 009°17'2 4.8
2018-Apr-17 15:30N 38°23' W 009°16'2 4.8
2018-Apr-17 15:00N 38°21' W 009°14'3 5.0
2018-Apr-17 14:30N 38°19' W 009°13'3 5.3
2018-Apr-17 14:00N 38°17' W 009°11'3 5.3
2018-Apr-17 13:30N 38°14' W 009°09'3 5.1
2018-Apr-17 13:01N 38°12' W 009°08'3 5.0
2018-Apr-17 12:30N 38°10' W 009°06'2 4.8
2018-Apr-17 12:00N 38°08' W 009°05'2 4.8
2018-Apr-17 11:30N 38°06' W 009°03'2 4.8
2018-Apr-17 11:00N 38°04' W 009°01'2 4.8
2018-Apr-17 10:30N 38°02' W 008°59'2 4.9
2018-Apr-17 10:00N 38°00' W 008°57'2 4.9
2018-Apr-17 09:30N 37°58' W 008°56'3 5.0
2018-Apr-17 09:00N 37°56' W 008°54'2 2.9
2018-Apr-17 08:28N 37°57' W 008°52'0 0.0
2018-Apr-17 07:58N 37°57' W 008°52'0 0.0
2018-Apr-17 07:28N 37°57' W 008°52'0 0.0
2018-Apr-17 06:58N 37°57' W 008°52'0 0.0
2018-Apr-17 06:28N 37°57' W 008°52'0 0.0
2018-Apr-17 05:58N 37°57' W 008°52'0 0.0
2018-Apr-17 05:28N 37°57' W 008°52'0 0.0
2018-Apr-17 04:58N 37°57' W 008°52'0 0.0
2018-Apr-17 04:28N 37°57' W 008°52'0 0.0
2018-Apr-17 03:58N 37°57' W 008°52'0 0.0
2018-Apr-17 03:22N 37°57' W 008°52'0 0.0
2018-Apr-17 02:59N 37°57' W 008°52'0 0.0
2018-Apr-17 02:28N 37°57' W 008°52'0 0.0
2018-Apr-17 01:58N 37°57' W 008°52'0 0.0
2018-Apr-17 01:28N 37°57' W 008°52'0 0.0
2018-Apr-17 01:00N 37°57' W 008°52'0 0.0
2018-Apr-17 00:30N 37°57' W 008°52'0 0.0
2018-Apr-17 00:00N 37°57' W 008°52'0 0.0
2018-Apr-16 23:30N 37°57' W 008°52'0 0.0
2018-Apr-16 23:00N 37°57' W 008°52'0 0.0
2018-Apr-16 22:30N 37°57' W 008°52'0 0.0
2018-Apr-16 22:00N 37°57' W 008°52'0 0.0
2018-Apr-16 21:30N 37°57' W 008°52'0 0.0
2018-Apr-16 21:00N 37°57' W 008°52'1 2.6
2018-Apr-16 20:30N 37°56' W 008°52'3 5.0
2018-Apr-16 20:00N 37°54' W 008°53'2 5.0
2018-Apr-16 19:30N 37°51' W 008°54'3 5.0
2018-Apr-16 18:59N 37°49' W 008°55'2 5.0
2018-Apr-16 18:30N 37°46' W 008°56'3 5.4
2018-Apr-16 18:00N 37°44' W 008°56'43 4.3
2018-Apr-16 08:07N 37°01' W 008°49'1 4.8
2018-Apr-16 08:00N 37°01' W 008°48'2 5.0
2018-Apr-16 07:30N 37°02' W 008°45'3 4.9
2018-Apr-16 06:58N 37°03' W 008°42'2 5.1
2018-Apr-16 06:30N 37°04' W 008°39'2 4.5
2018-Apr-16 06:00N 37°04' W 008°37'3 5.1
2018-Apr-16 05:30N 37°05' W 008°34'3 5.1
2018-Apr-16 05:00N 37°07' W 008°32'0 0.2
2018-Apr-16 04:29N 37°07' W 008°32'0 0.0
2018-Apr-16 03:58N 37°07' W 008°32'0 0.0
2018-Apr-16 03:30N 37°07' W 008°32'0 0.0
2018-Apr-16 02:49N 37°07' W 008°32'0 0.0
2018-Apr-16 02:25N 37°07' W 008°32'0 0.0
2018-Apr-16 01:58N 37°07' W 008°32'0 0.0
2018-Apr-16 01:22N 37°07' W 008°32'0 0.0
2018-Apr-16 00:58N 37°07' W 008°32'0 0.0
2018-Apr-16 00:25N 37°07' W 008°32'0 0.0
2018-Apr-15 23:58N 37°07' W 008°32'0 0.0
2018-Apr-15 23:28N 37°07' W 008°32'0 0.0
2018-Apr-15 22:58N 37°07' W 008°32'0 0.0
2018-Apr-15 22:28N 37°07' W 008°32'0 0.0
2018-Apr-15 21:58N 37°07' W 008°32'0 0.0
2018-Apr-15 21:28N 37°07' W 008°32'0 0.0
2018-Apr-15 20:58N 37°07' W 008°32'0 0.0
2018-Apr-15 20:22N 37°07' W 008°32'0 0.0
2018-Apr-15 20:00N 37°07' W 008°32'0 0.0
2018-Apr-15 19:30N 37°07' W 008°32'0 0.0
2018-Apr-15 19:00N 37°07' W 008°32'0 0.0
2018-Apr-15 18:30N 37°07' W 008°32'0 0.0
2018-Apr-15 18:00N 37°07' W 008°32'0 0.0
2018-Apr-15 17:30N 37°07' W 008°32'0 0.0
2018-Apr-15 17:00N 37°07' W 008°32'0 0.0
2018-Apr-15 16:30N 37°07' W 008°32'0 0.0
2018-Apr-15 16:00N 37°07' W 008°32'0 0.0
2018-Apr-15 15:30N 37°07' W 008°32'0 0.0
2018-Apr-15 15:00N 37°07' W 008°32'0 0.0
2018-Apr-15 14:30N 37°07' W 008°32'0 0.0
2018-Apr-15 14:00N 37°07' W 008°32'0 0.0
2018-Apr-15 13:30N 37°07' W 008°32'0 0.0
2018-Apr-15 13:00N 37°07' W 008°32'0 0.0
2018-Apr-15 12:30N 37°07' W 008°32'0 0.0
2018-Apr-15 11:58N 37°07' W 008°32'0 0.0
2018-Apr-15 11:25N 37°07' W 008°32'0 0.0
2018-Apr-15 10:58N 37°07' W 008°32'0 0.0
2018-Apr-15 10:28N 37°07' W 008°32'0 0.0
2018-Apr-15 09:58N 37°07' W 008°32'0 0.0
2018-Apr-15 09:26N 37°07' W 008°32'0 0.0
2018-Apr-15 08:56N 37°07' W 008°32'0 0.0
2018-Apr-15 08:26N 37°07' W 008°32'0 0.0
2018-Apr-15 07:56N 37°07' W 008°32'0 0.0
2018-Apr-15 07:26N 37°07' W 008°32'0 0.0
2018-Apr-15 06:56N 37°07' W 008°32'0 0.0
2018-Apr-15 06:26N 37°07' W 008°32'0 0.0
2018-Apr-15 05:44N 37°07' W 008°32'0 0.0
2018-Apr-15 05:08N 37°07' W 008°32'0 0.0
2018-Apr-15 04:56N 37°07' W 008°32'0 0.0
2018-Apr-15 04:20N 37°07' W 008°32'0 0.0
2018-Apr-15 03:56N 37°07' W 008°32'0 0.0
2018-Apr-15 03:29N 37°07' W 008°32'0 0.0
2018-Apr-15 02:56N 37°07' W 008°32'0 0.0
2018-Apr-15 02:26N 37°07' W 008°32'0 0.0
2018-Apr-15 01:50N 37°07' W 008°32'0 0.0
2018-Apr-15 01:29N 37°07' W 008°32'0 0.0
2018-Apr-15 00:56N 37°07' W 008°32'0 0.0
2018-Apr-15 00:26N 37°07' W 008°32'0 0.0
2018-Apr-14 23:56N 37°07' W 008°32'0 0.0
2018-Apr-14 23:26N 37°07' W 008°32'0 0.0
2018-Apr-14 22:59N 37°07' W 008°32'0 0.0
2018-Apr-14 22:26N 37°07' W 008°32'0 0.0
2018-Apr-14 21:56N 37°07' W 008°32'0 0.0
2018-Apr-14 21:26N 37°07' W 008°32'0 0.0
2018-Apr-14 20:56N 37°07' W 008°32'0 0.0
2018-Apr-14 20:28N 37°07' W 008°32'0 0.0
2018-Apr-14 19:59N 37°07' W 008°32'0 0.0
2018-Apr-14 19:27N 37°07' W 008°32'0 0.0
2018-Apr-14 19:00N 37°07' W 008°32'0 0.0
2018-Apr-14 18:30N 37°07' W 008°32'0 0.0
2018-Apr-14 17:54N 37°07' W 008°32'0 0.0
2018-Apr-14 17:30N 37°07' W 008°32'0 0.0
2018-Apr-14 17:00N 37°07' W 008°32'0 0.0
2018-Apr-14 16:30N 37°07' W 008°32'0 0.0
2018-Apr-14 15:57N 37°07' W 008°32'0 0.0
2018-Apr-14 15:27N 37°07' W 008°32'0 0.0
2018-Apr-14 14:54N 37°07' W 008°32'0 0.0
2018-Apr-14 14:21N 37°07' W 008°32'0 0.0
2018-Apr-14 13:57N 37°07' W 008°32'0 0.0
2018-Apr-14 13:27N 37°07' W 008°32'0 0.0
2018-Apr-14 12:57N 37°07' W 008°32'0 0.0
2018-Apr-14 12:27N 37°07' W 008°32'0 0.0
2018-Apr-14 11:57N 37°07' W 008°32'0 0.0
2018-Apr-14 11:27N 37°07' W 008°32'0 0.0
2018-Apr-14 10:57N 37°07' W 008°32'0 0.0
2018-Apr-14 10:21N 37°07' W 008°32'0 0.0
2018-Apr-14 09:57N 37°07' W 008°32'0 0.0
2018-Apr-14 09:27N 37°07' W 008°32'0 0.0
2018-Apr-14 08:51N 37°07' W 008°32'0 0.0
2018-Apr-14 08:27N 37°07' W 008°32'0 0.0
2018-Apr-14 08:00N 37°07' W 008°32'0 0.0
2018-Apr-14 07:28N 37°07' W 008°32'0 0.0
2018-Apr-14 06:58N 37°07' W 008°32'0 0.0
2018-Apr-14 06:28N 37°07' W 008°32'0 0.0
2018-Apr-14 05:58N 37°07' W 008°32'0 0.0
2018-Apr-14 05:04N 37°07' W 008°32'0 0.0
2018-Apr-14 04:46N 37°07' W 008°32'0 0.0
2018-Apr-14 04:28N 37°07' W 008°32'0 0.0
2018-Apr-14 03:58N 37°07' W 008°32'0 0.0
2018-Apr-14 03:28N 37°07' W 008°32'0 0.0
2018-Apr-14 02:58N 37°07' W 008°32'0 0.0
2018-Apr-14 02:28N 37°07' W 008°32'0 0.0
2018-Apr-14 01:58N 37°07' W 008°32'0 0.0
2018-Apr-14 01:22N 37°07' W 008°32'0 0.0
2018-Apr-14 00:58N 37°07' W 008°32'0 0.0
2018-Apr-14 00:30N 37°07' W 008°32'0 0.0
2018-Apr-13 23:55N 37°07' W 008°32'0 0.0
2018-Apr-13 23:29N 37°07' W 008°32'0 0.0
2018-Apr-13 22:53N 37°07' W 008°32'0 0.0
2018-Apr-13 22:29N 37°07' W 008°32'0 0.0
2018-Apr-13 21:59N 37°07' W 008°32'0 0.0
2018-Apr-13 21:29N 37°07' W 008°32'0 0.0
2018-Apr-13 20:59N 37°07' W 008°32'0 0.0
2018-Apr-13 20:29N 37°07' W 008°32'0 0.0
2018-Apr-13 19:59N 37°07' W 008°32'0 0.0
2018-Apr-13 19:28N 37°07' W 008°32'0 0.0
2018-Apr-13 18:58N 37°07' W 008°32'0 0.0
2018-Apr-13 18:22N 37°07' W 008°32'0 0.0
2018-Apr-13 17:58N 37°07' W 008°32'0 0.0
2018-Apr-13 17:28N 37°07' W 008°32'0 0.0
2018-Apr-13 16:58N 37°07' W 008°32'0 0.0
2018-Apr-13 16:22N 37°07' W 008°32'0 0.0
2018-Apr-13 15:58N 37°07' W 008°32'0 0.0
2018-Apr-13 15:28N 37°07' W 008°32'0 0.0
2018-Apr-13 14:58N 37°07' W 008°32'0 0.0
2018-Apr-13 14:28N 37°07' W 008°32'0 0.0
2018-Apr-13 13:52N 37°07' W 008°32'0 0.0
2018-Apr-13 13:28N 37°07' W 008°32'0 0.0
2018-Apr-13 12:50N 37°07' W 008°32'0 0.0
2018-Apr-13 12:26N 37°07' W 008°32'  
Track history (hours):
 
Tides and Currents Weather Stations Pressure Air Temp Water Temp Dewpoint Dewpoint Depression Visibility Wind Speed Wind Dir Waves Ship Positions

Sy Sara

Last reported at 2018-Apr-19 10:51 UTC. Time now 2018-Apr-20 02:55 UTC.
Position N 39°28' W 009°31'.

Length 12 m.

Type: Sailing vessel. MMSI: 211763730.

Date/timePositionNaut miles runAvg speedWind from/ knotsBaromVisibWave heightAir tempDewpointWater temp
2018-Apr-19 10:51N 39°28' W 009°31'9 0.3
2018-Apr-18 07:27N 39°20' W 009°25'4 3.1
2018-Apr-18 06:16N 39°22' W 009°30'1 2.9
2018-Apr-18 05:55N 39°22' W 009°31'1 2.2
2018-Apr-18 05:30N 39°22' W 009°32'3 4.9
2018-Apr-18 04:56N 39°19' W 009°32'2 4.9
2018-Apr-18 04:30N 39°17' W 009°32'3 5.2
2018-Apr-18 04:00N 39°14' W 009°32'3 5.3
2018-Apr-18 03:30N 39°12' W 009°32'3 5.5
2018-Apr-18 03:00N 39°09' W 009°32'3 5.3
2018-Apr-18 02:30N 39°06' W 009°32'3 5.2
2018-Apr-18 02:00N 39°04' W 009°32'3 5.2
2018-Apr-18 01:30N 39°01' W 009°32'2 5.0
2018-Apr-18 01:00N 38°59' W 009°32'2 5.0
2018-Apr-18 00:30N 38°56' W 009°33'2 4.9
2018-Apr-18 00:00N 38°54' W 009°33'2 4.9
2018-Apr-17 23:30N 38°51' W 009°33'2 4.8
2018-Apr-17 23:00N 38°49' W 009°33'3 4.9
2018-Apr-17 22:29N 38°46' W 009°33'2 4.5
2018-Apr-17 22:00N 38°44' W 009°33'2 4.3
2018-Apr-17 21:30N 38°42' W 009°32'2 4.3
2018-Apr-17 21:00N 38°40' W 009°30'2 4.3
2018-Apr-17 20:30N 38°39' W 009°28'2 3.7
2018-Apr-17 20:00N 38°38' W 009°26'2 3.7
2018-Apr-17 19:30N 38°37' W 009°24'2 3.2
2018-Apr-17 19:00N 38°37' W 009°22'1 1.8
2018-Apr-17 18:30N 38°36' W 009°21'2 4.2
2018-Apr-17 17:59N 38°34' W 009°20'3 4.5
2018-Apr-17 17:25N 38°32' W 009°19'2 4.5
2018-Apr-17 17:00N 38°30' W 009°18'2 4.5
2018-Apr-17 16:30N 38°28' W 009°17'2 4.7
2018-Apr-17 16:00N 38°26' W 009°17'2 4.8
2018-Apr-17 15:30N 38°23' W 009°16'2 4.8
2018-Apr-17 15:00N 38°21' W 009°14'3 5.0
2018-Apr-17 14:30N 38°19' W 009°13'3 5.3
2018-Apr-17 14:00N 38°17' W 009°11'3 5.3
2018-Apr-17 13:30N 38°14' W 009°09'3 5.1
2018-Apr-17 13:01N 38°12' W 009°08'3 5.0
2018-Apr-17 12:30N 38°10' W 009°06'2 4.8
2018-Apr-17 12:00N 38°08' W 009°05'2 4.8
2018-Apr-17 11:30N 38°06' W 009°03'2 4.8
2018-Apr-17 11:00N 38°04' W 009°01'2 4.8
2018-Apr-17 10:30N 38°02' W 008°59'2 4.9
2018-Apr-17 10:00N 38°00' W 008°57'2 4.9
2018-Apr-17 09:30N 37°58' W 008°56'3 5.0
2018-Apr-17 09:00N 37°56' W 008°54'2 2.9
2018-Apr-17 08:28N 37°57' W 008°52'0 0.0
2018-Apr-17 07:58N 37°57' W 008°52'0 0.0
2018-Apr-17 07:28N 37°57' W 008°52'0 0.0
2018-Apr-17 06:58N 37°57' W 008°52'0 0.0
2018-Apr-17 06:28N 37°57' W 008°52'0 0.0
2018-Apr-17 05:58N 37°57' W 008°52'0 0.0
2018-Apr-17 05:28N 37°57' W 008°52'0 0.0
2018-Apr-17 04:58N 37°57' W 008°52'0 0.0
2018-Apr-17 04:28N 37°57' W 008°52'0 0.0
2018-Apr-17 03:58N 37°57' W 008°52'0 0.0
2018-Apr-17 03:22N 37°57' W 008°52'0 0.0
2018-Apr-17 02:59N 37°57' W 008°52'0 0.0
2018-Apr-17 02:28N 37°57' W 008°52'0 0.0
2018-Apr-17 01:58N 37°57' W 008°52'0 0.0
2018-Apr-17 01:28N 37°57' W 008°52'0 0.0
2018-Apr-17 01:00N 37°57' W 008°52'0 0.0
2018-Apr-17 00:30N 37°57' W 008°52'0 0.0
2018-Apr-17 00:00N 37°57' W 008°52'0 0.0
2018-Apr-16 23:30N 37°57' W 008°52'0 0.0
2018-Apr-16 23:00N 37°57' W 008°52'0 0.0
2018-Apr-16 22:30N 37°57' W 008°52'0 0.0
2018-Apr-16 22:00N 37°57' W 008°52'0 0.0
2018-Apr-16 21:30N 37°57' W 008°52'0 0.0
2018-Apr-16 21:00N 37°57' W 008°52'1 2.6
2018-Apr-16 20:30N 37°56' W 008°52'3 5.0
2018-Apr-16 20:00N 37°54' W 008°53'2 5.0
2018-Apr-16 19:30N 37°51' W 008°54'3 5.0
2018-Apr-16 18:59N 37°49' W 008°55'2 5.0
2018-Apr-16 18:30N 37°46' W 008°56'3 5.4
2018-Apr-16 18:00N 37°44' W 008°56'43 4.3
2018-Apr-16 08:07N 37°01' W 008°49'1 4.8
2018-Apr-16 08:00N 37°01' W 008°48'2 5.0
2018-Apr-16 07:30N 37°02' W 008°45'3 4.9
2018-Apr-16 06:58N 37°03' W 008°42'2 5.1
2018-Apr-16 06:30N 37°04' W 008°39'2 4.5
2018-Apr-16 06:00N 37°04' W 008°37'3 5.1
2018-Apr-16 05:30N 37°05' W 008°34'3 5.1
2018-Apr-16 05:00N 37°07' W 008°32'0 0.2
2018-Apr-16 04:29N 37°07' W 008°32'0 0.0
2018-Apr-16 03:58N 37°07' W 008°32'0 0.0
2018-Apr-16 03:30N 37°07' W 008°32'0 0.0
2018-Apr-16 02:49N 37°07' W 008°32'0 0.0
2018-Apr-16 02:25N 37°07' W 008°32'0 0.0
2018-Apr-16 01:58N 37°07' W 008°32'0 0.0
2018-Apr-16 01:22N 37°07' W 008°32'0 0.0
2018-Apr-16 00:58N 37°07' W 008°32'0 0.0
2018-Apr-16 00:25N 37°07' W 008°32'0 0.0
2018-Apr-15 23:58N 37°07' W 008°32'0 0.0
2018-Apr-15 23:28N 37°07' W 008°32'0 0.0
2018-Apr-15 22:58N 37°07' W 008°32'0 0.0
2018-Apr-15 22:28N 37°07' W 008°32'0 0.0
2018-Apr-15 21:58N 37°07' W 008°32'0 0.0
2018-Apr-15 21:28N 37°07' W 008°32'0 0.0
2018-Apr-15 20:58N 37°07' W 008°32'0 0.0
2018-Apr-15 20:22N 37°07' W 008°32'0 0.0
2018-Apr-15 20:00N 37°07' W 008°32'0 0.0
2018-Apr-15 19:30N 37°07' W 008°32'0 0.0
2018-Apr-15 19:00N 37°07' W 008°32'0 0.0
2018-Apr-15 18:30N 37°07' W 008°32'0 0.0
2018-Apr-15 18:00N 37°07' W 008°32'0 0.0
2018-Apr-15 17:30N 37°07' W 008°32'0 0.0
2018-Apr-15 17:00N 37°07' W 008°32'0 0.0
2018-Apr-15 16:30N 37°07' W 008°32'0 0.0
2018-Apr-15 16:00N 37°07' W 008°32'0 0.0
2018-Apr-15 15:30N 37°07' W 008°32'0 0.0
2018-Apr-15 15:00N 37°07' W 008°32'0 0.0
2018-Apr-15 14:30N 37°07' W 008°32'0 0.0
2018-Apr-15 14:00N 37°07' W 008°32'0 0.0
2018-Apr-15 13:30N 37°07' W 008°32'0 0.0
2018-Apr-15 13:00N 37°07' W 008°32'0 0.0
2018-Apr-15 12:30N 37°07' W 008°32'0 0.0
2018-Apr-15 11:58N 37°07' W 008°32'0 0.0
2018-Apr-15 11:25N 37°07' W 008°32'0 0.0
2018-Apr-15 10:58N 37°07' W 008°32'0 0.0
2018-Apr-15 10:28N 37°07' W 008°32'0 0.0
2018-Apr-15 09:58N 37°07' W 008°32'0 0.0
2018-Apr-15 09:26N 37°07' W 008°32'0 0.0
2018-Apr-15 08:56N 37°07' W 008°32'0 0.0
2018-Apr-15 08:26N 37°07' W 008°32'0 0.0
2018-Apr-15 07:56N 37°07' W 008°32'0 0.0
2018-Apr-15 07:26N 37°07' W 008°32'0 0.0
2018-Apr-15 06:56N 37°07' W 008°32'0 0.0
2018-Apr-15 06:26N 37°07' W 008°32'0 0.0
2018-Apr-15 05:44N 37°07' W 008°32'0 0.0
2018-Apr-15 05:08N 37°07' W 008°32'0 0.0
2018-Apr-15 04:56N 37°07' W 008°32'0 0.0
2018-Apr-15 04:20N 37°07' W 008°32'0 0.0
2018-Apr-15 03:56N 37°07' W 008°32'0 0.0
2018-Apr-15 03:29N 37°07' W 008°32'0 0.0
2018-Apr-15 02:56N 37°07' W 008°32'0 0.0
2018-Apr-15 02:26N 37°07' W 008°32'0 0.0
2018-Apr-15 01:50N 37°07' W 008°32'0 0.0
2018-Apr-15 01:29N 37°07' W 008°32'0 0.0
2018-Apr-15 00:56N 37°07' W 008°32'0 0.0
2018-Apr-15 00:26N 37°07' W 008°32'0 0.0
2018-Apr-14 23:56N 37°07' W 008°32'0 0.0
2018-Apr-14 23:26N 37°07' W 008°32'0 0.0
2018-Apr-14 22:59N 37°07' W 008°32'0 0.0
2018-Apr-14 22:26N 37°07' W 008°32'0 0.0
2018-Apr-14 21:56N 37°07' W 008°32'0 0.0
2018-Apr-14 21:26N 37°07' W 008°32'0 0.0
2018-Apr-14 20:56N 37°07' W 008°32'0 0.0
2018-Apr-14 20:28N 37°07' W 008°32'0 0.0
2018-Apr-14 19:59N 37°07' W 008°32'0 0.0
2018-Apr-14 19:27N 37°07' W 008°32'0 0.0
2018-Apr-14 19:00N 37°07' W 008°32'0 0.0
2018-Apr-14 18:30N 37°07' W 008°32'0 0.0
2018-Apr-14 17:54N 37°07' W 008°32'0 0.0
2018-Apr-14 17:30N 37°07' W 008°32'0 0.0
2018-Apr-14 17:00N 37°07' W 008°32'0 0.0
2018-Apr-14 16:30N 37°07' W 008°32'0 0.0
2018-Apr-14 15:57N 37°07' W 008°32'0 0.0
2018-Apr-14 15:27N 37°07' W 008°32'0 0.0
2018-Apr-14 14:54N 37°07' W 008°32'0 0.0
2018-Apr-14 14:21N 37°07' W 008°32'0 0.0
2018-Apr-14 13:57N 37°07' W 008°32'0 0.0
2018-Apr-14 13:27N 37°07' W 008°32'0 0.0
2018-Apr-14 12:57N 37°07' W 008°32'0 0.0
2018-Apr-14 12:27N 37°07' W 008°32'0 0.0
2018-Apr-14 11:57N 37°07' W 008°32'0 0.0
2018-Apr-14 11:27N 37°07' W 008°32'0 0.0
2018-Apr-14 10:57N 37°07' W 008°32'0 0.0
2018-Apr-14 10:21N 37°07' W 008°32'0 0.0
2018-Apr-14 09:57N 37°07' W 008°32'0 0.0
2018-Apr-14 09:27N 37°07' W 008°32'0 0.0
2018-Apr-14 08:51N 37°07' W 008°32'0 0.0
2018-Apr-14 08:27N 37°07' W 008°32'0 0.0
2018-Apr-14 08:00N 37°07' W 008°32'0 0.0
2018-Apr-14 07:28N 37°07' W 008°32'0 0.0
2018-Apr-14 06:58N 37°07' W 008°32'0 0.0
2018-Apr-14 06:28N 37°07' W 008°32'0 0.0
2018-Apr-14 05:58N 37°07' W 008°32'0 0.0
2018-Apr-14 05:04N 37°07' W 008°32'0 0.0
2018-Apr-14 04:46N 37°07' W 008°32'0 0.0
2018-Apr-14 04:28N 37°07' W 008°32'0 0.0
2018-Apr-14 03:58N 37°07' W 008°32'0 0.0
2018-Apr-14 03:28N 37°07' W 008°32'0 0.0
2018-Apr-14 02:58N 37°07' W 008°32'0 0.0
2018-Apr-14 02:28N 37°07' W 008°32'0 0.0
2018-Apr-14 01:58N 37°07' W 008°32'0 0.0
2018-Apr-14 01:22N 37°07' W 008°32'0 0.0
2018-Apr-14 00:58N 37°07' W 008°32'0 0.0
2018-Apr-14 00:30N 37°07' W 008°32'0 0.0
2018-Apr-13 23:55N 37°07' W 008°32'0 0.0
2018-Apr-13 23:29N 37°07' W 008°32'0 0.0
2018-Apr-13 22:53N 37°07' W 008°32'0 0.0
2018-Apr-13 22:29N 37°07' W 008°32'0 0.0
2018-Apr-13 21:59N 37°07' W 008°32'0 0.0
2018-Apr-13 21:29N 37°07' W 008°32'0 0.0
2018-Apr-13 20:59N 37°07' W 008°32'0 0.0
2018-Apr-13 20:29N 37°07' W 008°32'0 0.0
2018-Apr-13 19:59N 37°07' W 008°32'0 0.0
2018-Apr-13 19:28N 37°07' W 008°32'0 0.0
2018-Apr-13 18:58N 37°07' W 008°32'0 0.0
2018-Apr-13 18:22N 37°07' W 008°32'0 0.0
2018-Apr-13 17:58N 37°07' W 008°32'0 0.0
2018-Apr-13 17:28N 37°07' W 008°32'0 0.0
2018-Apr-13 16:58N 37°07' W 008°32'0 0.0
2018-Apr-13 16:22N 37°07' W 008°32'0 0.0
2018-Apr-13 15:58N 37°07' W 008°32'0 0.0
2018-Apr-13 15:28N 37°07' W 008°32'0 0.0
2018-Apr-13 14:58N 37°07' W 008°32'0 0.0
2018-Apr-13 14:28N 37°07' W 008°32'0 0.0
2018-Apr-13 13:52N 37°07' W 008°32'0 0.0
2018-Apr-13 13:28N 37°07' W 008°32'0 0.0
2018-Apr-13 12:50N 37°07' W 008°32'0 0.0
2018-Apr-13 12:26N 37°07' W 008°32'  

Dump ship's entire track history